Time;durP1;ratioP1;P1;durP2;ratioP2;P2;SDS_P1;SDS_P2;PMS_P1;PMS_P2;Temp;Humidity;BMP_temperature;BMP_pressure;BME280_temperature;BME280_humidity;BME280_pressure;Samples;Min_cycle;Max_cycle;Signal;HPM_P1;HPM_P2
2021/08/15 16:05:03;;;;;;;8.57;5.85;;;29.50;57.50;;;29.31;43.70;94662.50;5089475;28;20572;-81
2021/08/15 16:07:34;;;;;;;8.30;6.13;;;29.30;61.10;;;30.10;44.02;94667.84;5033537;28;20630;-81
2021/08/15 16:10:05;;;;;;;8.20;6.35;;;29.50;62.30;;;30.86;44.03;94650.03;5068000;28;20635;-82
2021/08/15 16:12:33;;;;;;;9.52;6.00;;;29.90;62.90;;;31.45;42.82;94659.19;5051673;28;20191;-82
2021/08/15 16:15:01;;;;;;;6.53;5.20;;;30.40;61.80;;;31.83;42.29;94649.31;5031696;28;20593;-81
2021/08/15 16:17:28;;;;;;;10.85;5.63;;;30.80;61.50;;;32.15;41.31;94649.63;5037015;28;20238;-81
2021/08/15 16:19:55;;;;;;;6.10;4.72;;;31.10;60.20;;;32.44;40.92;94650.59;5031709;28;20301;-82
2021/08/15 16:22:23;;;;;;;6.68;4.82;;;31.40;60.00;;;32.64;39.96;94646.19;5031901;28;20560;-83
2021/08/15 16:24:50;;;;;;;7.13;4.65;;;31.70;58.90;;;32.70;39.83;94642.91;5048028;28;20319;-82
2021/08/15 16:27:18;;;;;;;7.78;4.60;;;31.90;58.20;;;32.72;39.94;94648.00;5046472;28;20226;-83
2021/08/15 16:29:45;;;;;;;5.72;4.22;;;32.00;58.80;;;32.67;40.35;94651.72;5030884;28;20232;-82
2021/08/15 16:32:12;;;;;;;7.90;4.55;;;32.10;58.10;;;32.57;40.31;94644.81;5031832;28;20191;-81
2021/08/15 16:34:40;;;;;;;5.32;3.97;;;32.10;58.40;;;32.48;40.49;94651.50;5031555;28;20247;-82
2021/08/15 16:37:07;;;;;;;7.18;4.70;;;32.10;58.10;;;32.29;40.66;94649.31;5022283;28;20211;-82
2021/08/15 16:39:35;;;;;;;7.90;3.95;;;32.00;58.10;;;32.07;40.31;94651.31;5064711;28;20223;-83
2021/08/15 16:42:04;;;;;;;8.35;4.65;;;31.90;58.00;;;31.86;40.31;94649.44;5031067;28;20603;-82
2021/08/15 16:44:32;;;;;;;5.55;4.30;;;31.80;57.50;;;31.81;40.60;94646.16;5048136;28;20208;-82
2021/08/15 16:46:59;;;;;;;6.13;4.70;;;31.70;58.40;;;31.76;41.28;94628.16;5045596;28;20196;-81
2021/08/15 16:49:26;;;;;;;5.03;4.45;;;31.60;58.80;;;31.68;41.68;94629.06;5031329;28;20257;-82
2021/08/15 16:51:54;;;;;;;8.88;4.57;;;31.50;59.40;;;31.59;41.65;94629.09;5031575;28;20231;-83
2021/08/15 16:54:21;;;;;;;5.82;4.72;;;31.40;60.30;;;31.45;42.25;94632.88;5030972;28;20241;-83
2021/08/15 16:56:48;;;;;;;7.03;4.85;;;31.30;59.70;;;31.32;41.93;94623.13;5031975;28;20336;-83
2021/08/15 16:59:15;;;;;;;5.95;4.30;;;31.20;59.30;;;31.17;41.88;94618.31;5031184;28;20748;-82
2021/08/15 17:01:42;;;;;;;6.10;4.63;;;31.10;59.80;;;31.08;42.46;94616.47;5047459;28;20220;-83
2021/08/15 17:04:10;;;;;;;5.65;4.50;;;31.00;60.10;;;30.99;42.99;94615.69;5035523;28;20202;-82
2021/08/15 17:06:56;;;;;;;5.78;5.18;;;30.90;60.30;;;30.85;42.63;94597.00;5035094;28;20204;-82
2021/08/15 17:09:24;;;;;;;6.32;4.90;;;30.70;60.30;;;30.73;42.99;94595.00;5050169;28;20766;-83
2021/08/15 17:11:52;;;;;;;8.15;5.07;;;30.70;60.50;;;30.58;43.08;94607.19;5039060;28;20202;-82
2021/08/15 17:14:19;;;;;;;6.47;4.90;;;30.50;60.80;;;30.44;43.75;94614.72;5027800;28;20605;-81
2021/08/15 17:16:46;;;;;;;7.40;4.97;;;30.40;60.90;;;30.27;43.74;94616.41;5017594;28;20251;-81
2021/08/15 17:19:13;;;;;;;10.05;5.68;;;30.30;61.10;;;30.11;44.01;94623.47;5039338;28;20270;-81
2021/08/15 17:21:41;;;;;;;7.72;5.43;;;30.10;61.30;;;29.93;44.21;94610.00;5020371;28;20229;-81
2021/08/15 17:24:09;;;;;;;8.55;5.50;;;29.90;61.30;;;29.75;44.47;94613.81;5035249;28;20285;-81
2021/08/15 17:26:37;;;;;;;6.95;5.75;;;29.80;61.60;;;29.54;44.21;94609.91;5041334;28;20222;-80
2021/08/15 17:29:05;;;;;;;7.05;5.72;;;29.60;61.60;;;29.34;45.00;94610.56;5026656;28;20205;-80
2021/08/15 17:31:32;;;;;;;7.90;5.90;;;29.40;61.50;;;29.15;44.61;94617.06;5023533;28;20220;-81
2021/08/15 17:34:00;;;;;;;7.90;5.63;;;29.30;61.90;;;28.96;45.26;94630.84;5013916;28;20215;-80
2021/08/15 17:36:27;;;;;;;8.90;6.25;;;29.10;62.30;;;28.77;45.80;94628.44;5026609;28;20247;-80
2021/08/15 17:38:54;;;;;;;8.40;6.45;;;28.90;62.40;;;28.57;46.03;94635.97;5045700;28;20193;-80
2021/08/15 17:41:22;;;;;;;6.90;6.20;;;28.80;62.50;;;28.38;46.30;94633.56;5027244;28;20216;-81
2021/08/15 17:43:50;;;;;;;6.75;5.88;;;28.60;62.80;;;28.20;46.30;94640.00;5026118;28;20208;-80
2021/08/15 17:46:18;;;;;;;8.90;6.20;;;28.40;63.10;;;28.06;46.95;94640.88;5034929;28;20219;-80
2021/08/15 17:48:45;;;;;;;8.98;6.07;;;28.20;63.30;;;27.91;47.41;94646.63;5026278;28;20207;-81
2021/08/15 17:51:13;;;;;;;8.45;6.30;;;28.10;63.60;;;27.78;47.06;94648.28;5041710;28;20269;-80
2021/08/15 17:53:42;;;;;;;8.15;6.43;;;28.00;63.90;;;27.61;48.39;94649.78;5033394;28;20330;-81
2021/08/15 17:56:09;;;;;;;10.32;6.68;;;27.80;64.30;;;27.44;48.08;94641.56;5010484;28;20312;-80
2021/08/15 17:58:36;;;;;;;9.48;7.15;;;27.60;64.60;;;27.26;48.65;94632.56;5042527;28;20207;-79
2021/08/15 18:01:04;;;;;;;8.32;6.78;;;27.50;64.80;;;27.07;48.94;94627.31;5030460;28;20226;-81
2021/08/15 18:03:31;;;;;;;9.75;7.30;;;27.30;65.00;;;26.90;49.17;94642.22;5040090;28;20198;-80
2021/08/15 18:05:58;;;;;;;7.18;6.35;;;27.10;65.10;;;26.77;49.38;94638.47;5022872;28;20357;-80
2021/08/15 18:08:25;;;;;;;8.95;6.63;;;27.00;65.30;;;26.66;49.49;94637.84;5024214;28;20190;-80
2021/08/15 18:10:53;;;;;;;9.82;6.40;;;26.90;65.40;;;26.58;49.23;94637.75;5025206;28;20231;-80
2021/08/15 18:13:20;;;;;;;10.32;6.90;;;26.70;65.60;;;26.52;49.84;94643.25;5039421;28;20283;-80
2021/08/15 18:15:47;;;;;;;8.40;6.53;;;26.60;66.00;;;26.47;49.75;94643.31;5040590;28;20212;-80
2021/08/15 18:18:14;;;;;;;9.98;7.00;;;26.50;66.20;;;26.43;49.81;94639.66;5042446;28;20589;-80
2021/08/15 18:20:42;;;;;;;18.13;7.40;;;26.40;66.40;;;26.40;50.24;94639.44;5025536;28;20224;-81
2021/08/15 18:23:09;;;;;;;10.23;6.78;;;26.40;66.60;;;26.32;49.97;94633.69;5017152;28;20532;-80
2021/08/15 18:25:36;;;;;;;8.60;6.95;;;26.30;66.70;;;26.31;50.21;94636.66;5043065;28;20222;-80
2021/08/15 18:28:04;;;;;;;9.18;7.32;;;26.20;66.70;;;26.26;49.89;94632.19;5020379;28;20658;-80
2021/08/15 18:30:31;;;;;;;7.80;6.13;;;26.20;66.80;;;26.22;50.39;94631.19;5026032;28;20239;-80
2021/08/15 18:32:58;;;;;;;8.07;7.05;;;26.10;66.90;;;26.19;50.65;94616.44;5023677;28;20189;-80
2021/08/15 18:35:26;;;;;;;10.13;7.03;;;26.10;67.40;;;26.15;50.73;94622.72;5033992;28;20215;-80
2021/08/15 18:37:53;;;;;;;10.40;7.45;;;26.10;67.20;;;26.07;50.71;94616.13;5011545;28;20280;-80
2021/08/15 18:40:21;;;;;;;8.95;7.28;;;26.00;67.20;;;26.05;50.99;94631.75;5040993;28;20209;-80
2021/08/15 18:42:49;;;;;;;12.20;7.05;;;26.00;67.40;;;25.99;50.82;94633.72;5041709;28;20200;-80
2021/08/15 18:45:17;;;;;;;8.00;7.18;;;25.90;67.60;;;25.93;50.88;94637.59;5040436;28;20628;-80
2021/08/15 18:47:44;;;;;;;8.73;7.50;;;25.90;67.80;;;25.89;51.42;94629.31;5033093;28;20196;-80
2021/08/15 18:50:12;;;;;;;8.95;7.47;;;25.80;67.90;;;25.82;51.05;94623.53;5015414;28;20221;-80
2021/08/15 18:52:39;;;;;;;11.27;7.38;;;25.80;67.80;;;25.80;51.96;94622.25;5012351;28;20578;-80
2021/08/15 18:55:09;;;;;;;9.90;7.07;;;25.70;67.80;;;25.75;52.03;94614.28;5016681;28;20252;-80
2021/08/15 18:57:39;;;;;;;11.82;7.93;;;25.70;68.10;;;25.69;51.90;94614.34;5032048;28;20203;-80
2021/08/15 19:00:08;;;;;;;9.40;7.22;;;25.60;68.20;;;25.66;52.57;94627.56;5026727;28;20567;-80
2021/08/15 19:02:35;;;;;;;10.55;7.50;;;25.60;68.40;;;25.59;52.77;94621.81;5038646;28;20219;-80
2021/08/15 19:05:04;;;;;;;11.45;8.25;;;25.60;68.70;;;25.54;53.09;94625.38;5031287;28;20215;-81
2021/08/15 19:07:31;;;;;;;9.63;7.45;;;25.50;68.80;;;25.47;53.07;94624.94;5036167;28;20199;-80
2021/08/15 19:09:58;;;;;;;9.55;8.10;;;25.50;69.00;;;25.46;53.13;94626.03;5022025;28;20223;-80
2021/08/15 19:12:26;;;;;;;11.23;7.57;;;25.40;69.20;;;25.41;53.20;94624.22;5024516;28;20246;-81
2021/08/15 19:14:53;;;;;;;9.05;7.47;;;25.30;69.30;;;25.36;52.81;94619.69;5041254;28;20254;-80
2021/08/15 19:17:22;;;;;;;8.50;7.50;;;25.30;69.30;;;25.31;53.39;94627.84;5051081;28;20196;-80
2021/08/15 19:19:55;;;;;;;12.20;7.13;;;25.30;69.60;;;25.34;53.33;94639.88;5033720;28;20711;-79
2021/08/15 19:22:22;;;;;;;9.65;6.97;;;25.20;69.40;;;25.32;53.69;94645.53;5032924;28;20199;-79
2021/08/15 19:24:50;;;;;;;8.13;6.97;;;25.20;69.90;;;25.38;53.22;94652.44;5032960;28;20257;-80
2021/08/15 19:27:18;;;;;;;8.32;6.70;;;25.20;69.90;;;25.40;53.51;94649.47;5045385;28;20207;-81
2021/08/15 19:29:45;;;;;;;10.02;6.80;;;25.20;70.10;;;25.40;53.65;94652.97;5013213;28;20231;-80
2021/08/15 19:32:12;;;;;;;13.70;8.13;;;25.20;70.20;;;25.41;53.72;94665.31;5029360;28;20277;-81
2021/08/15 19:34:40;;;;;;;10.45;6.93;;;25.20;70.30;;;25.40;53.70;94663.72;5033236;28;20241;-80
2021/08/15 19:37:07;;;;;;;11.50;7.47;;;25.20;70.30;;;25.42;53.74;94668.78;5051246;28;20199;-80
2021/08/15 19:39:34;;;;;;;9.90;7.10;;;25.20;70.50;;;25.42;53.88;94666.09;5039376;28;20257;-80
2021/08/15 19:42:02;;;;;;;8.23;6.57;;;25.20;70.50;;;25.43;54.00;94662.31;5030430;28;20660;-81
2021/08/15 19:44:30;;;;;;;10.60;8.00;;;25.20;70.70;;;25.48;53.65;94682.94;5028910;28;20249;-81
2021/08/15 19:46:58;;;;;;;11.98;9.05;;;25.20;70.30;;;25.53;54.58;94697.06;5012917;28;20222;-81
2021/08/15 19:49:25;;;;;;;11.70;8.27;;;25.30;70.50;;;25.65;54.64;94704.69;5013204;28;20268;-81
2021/08/15 19:51:52;;;;;;;13.50;9.18;;;25.30;70.60;;;25.79;54.56;94736.16;5013766;28;20613;-80
2021/08/15 19:54:19;;;;;;;13.95;9.50;;;25.30;70.90;;;25.88;54.56;94764.75;5032329;28;20293;-81
2021/08/15 19:56:46;;;;;;;11.15;8.48;;;25.40;71.10;;;25.95;54.49;94766.28;5041137;28;20789;-80
2021/08/15 19:59:30;;;;;;;12.38;8.48;;;25.50;71.30;;;25.69;55.71;94769.34;5051605;28;20205;-80
2021/08/15 20:01:57;;;;;;;9.73;7.47;;;25.60;71.80;;;25.25;56.25;94780.13;5040695;28;20216;-79
2021/08/15 20:04:25;;;;;;;24.85;8.85;;;25.50;71.80;;;24.78;58.60;94830.84;5033700;28;20279;-79
2021/08/15 20:06:53;;;;;;;10.38;6.63;;;25.30;72.00;;;24.21;59.13;94816.31;5040343;28;20214;-81
2021/08/15 20:09:20;;;;;;;10.05;6.10;;;25.00;72.70;;;23.65;60.75;94816.38;5017048;28;20264;-81
2021/08/15 20:11:47;;;;;;;8.63;6.40;;;24.60;73.00;;;23.23;61.16;94825.72;5032811;28;20237;-79
2021/08/15 20:14:14;;;;;;;8.48;5.70;;;24.20;73.90;;;22.86;61.56;94834.88;5029411;28;20251;-80
2021/08/15 20:16:41;;;;;;;6.85;5.60;;;23.90;75.00;;;22.57;62.43;94845.38;5033654;28;20219;-82
2021/08/15 20:19:09;;;;;;;5.57;4.78;;;23.50;75.60;;;22.43;62.38;94875.31;5032798;28;20694;-81
2021/08/15 20:21:36;;;;;;;7.22;5.10;;;23.10;76.20;;;22.29;63.26;94885.72;5015407;28;20760;-82
2021/08/15 20:24:03;;;;;;;6.13;4.88;;;22.90;77.10;;;22.17;63.64;94898.53;5030679;28;20727;-81
2021/08/15 20:26:32;;;;;;;8.15;5.68;;;22.70;77.60;;;22.01;64.17;94919.09;5030897;28;20245;-80
2021/08/15 20:28:59;;;;;;;6.45;4.97;;;22.50;78.20;;;21.87;64.43;94919.59;5032512;28;20613;-81
2021/08/15 20:31:26;;;;;;;6.15;4.80;;;22.30;78.70;;;21.81;63.96;94909.13;5030419;28;20229;-81
2021/08/15 20:33:54;;;;;;;5.85;4.97;;;22.20;79.10;;;21.72;64.81;94911.50;5014820;28;20348;-81
2021/08/15 20:36:21;;;;;;;7.47;4.85;;;22.00;79.80;;;21.60;64.96;94906.41;5014676;28;20225;-82
2021/08/15 20:38:48;;;;;;;6.03;4.85;;;21.90;80.10;;;21.46;64.69;94890.03;5031232;28;20200;-79
2021/08/15 20:41:16;;;;;;;6.18;4.53;;;21.80;81.40;;;21.51;64.89;94895.41;5034682;28;20678;-79
2021/08/15 20:43:44;;;;;;;6.20;4.78;;;21.70;80.80;;;21.50;65.56;94890.31;5014897;28;20200;-79
2021/08/15 20:46:14;;;;;;;5.28;4.53;;;21.60;81.30;;;21.47;65.46;94882.84;5030864;28;20251;-80
2021/08/15 20:48:41;;;;;;;5.50;4.70;;;21.60;81.70;;;21.43;65.48;94867.34;5014175;28;20204;-79
2021/08/15 20:51:12;;;;;;;6.45;4.82;;;21.50;82.20;;;21.34;66.07;94836.91;5042006;28;20287;-80
2021/08/15 20:53:40;;;;;;;5.82;4.85;;;21.40;82.70;;;21.36;65.90;94831.28;5051417;28;20204;-79
2021/08/15 20:56:07;;;;;;;6.15;4.40;;;21.40;82.70;;;21.40;66.66;94821.72;5049500;28;20238;-80
2021/08/15 20:58:35;;;;;;;5.15;4.50;;;21.40;82.70;;;21.40;66.45;94814.50;5035984;28;20615;-79
2021/08/15 21:01:03;;;;;;;5.18;4.20;;;21.40;83.20;;;21.41;66.62;94780.59;5034322;28;20603;-79
2021/08/15 21:03:31;;;;;;;4.80;4.30;;;21.40;83.60;;;21.44;66.49;94756.09;5054281;28;20223;-80
2021/08/15 21:05:59;;;;;;;7.13;4.55;;;21.30;84.00;;;21.46;66.41;94713.94;5033316;28;20287;-80
2021/08/15 21:08:26;;;;;;;4.90;4.38;;;21.30;84.20;;;21.50;66.83;94684.84;5025821;28;20250;-79
2021/08/15 21:10:53;;;;;;;4.53;4.13;;;21.30;84.30;;;21.41;66.97;94697.91;5017120;28;20233;-79
2021/08/15 21:13:20;;;;;;;5.90;4.65;;;21.40;84.50;;;21.41;67.11;94738.75;5051082;28;20198;-79
2021/08/15 21:15:49;;;;;;;9.23;5.35;;;21.30;85.00;;;21.35;67.31;94721.13;5017704;28;20287;-79
2021/08/15 21:18:18;;;;;;;5.70;4.95;;;21.40;84.00;;;21.26;67.65;94736.84;5031817;28;20200;-80
2021/08/15 21:20:45;;;;;;;5.55;4.95;;;21.30;84.20;;;21.19;68.06;94738.16;5045193;28;20276;-79
2021/08/15 21:23:13;;;;;;;6.07;4.80;;;21.20;84.30;;;21.10;67.85;94743.19;5043137;28;20198;-79
2021/08/15 21:25:41;;;;;;;8.20;5.15;;;21.20;84.20;;;21.04;68.62;94747.69;5017251;28;20255;-79
2021/08/15 21:28:10;;;;;;;5.45;4.93;;;21.10;84.10;;;20.91;68.51;94735.69;5023265;28;20212;-81
2021/08/15 21:30:38;;;;;;;5.60;4.13;;;21.10;84.40;;;20.91;68.40;94737.53;5017434;28;20216;-79
2021/08/15 21:33:05;;;;;;;4.78;4.13;;;21.00;84.50;;;20.83;68.85;94735.38;5017098;28;20203;-79
2021/08/15 21:35:32;;;;;;;4.25;3.72;;;21.00;84.50;;;20.78;68.58;94728.94;5050267;28;20243;-79
2021/08/15 21:38:00;;;;;;;4.35;3.85;;;20.90;84.60;;;20.63;69.00;94711.00;5036292;28;20625;-79
2021/08/15 21:40:27;;;;;;;4.55;3.90;;;20.80;84.70;;;20.63;68.49;94720.88;5035963;28;20216;-79
2021/08/15 21:42:55;;;;;;;4.38;3.58;;;20.80;84.70;;;20.57;68.90;94720.03;5021087;28;20424;-78
2021/08/15 21:45:23;;;;;;;4.25;3.20;;;20.70;84.90;;;20.54;68.88;94719.75;5038167;28;20228;-78
2021/08/15 21:47:50;;;;;;;3.13;2.85;;;20.60;84.90;;;20.48;68.94;94724.25;5031243;28;20710;-79
2021/08/15 21:50:18;;;;;;;4.45;3.00;;;20.60;85.00;;;20.40;68.62;94720.22;5036824;28;20241;-77
2021/08/15 21:52:45;;;;;;;4.00;3.05;;;20.50;85.20;;;20.33;68.98;94706.34;5020333;28;20211;-79
2021/08/15 21:55:12;;;;;;;4.22;3.47;;;20.50;85.50;;;20.11;69.29;94690.50;5050008;28;20223;-80
2021/08/15 21:57:41;;;;;;;4.25;3.42;;;20.40;85.30;;;20.25;70.02;94712.16;5036562;28;20203;-82
2021/08/15 22:00:11;;;;;;;4.68;3.83;;;20.40;85.50;;;20.16;69.50;94695.84;5033168;28;20300;-82
2021/08/15 22:02:39;;;;;;;4.90;3.25;;;20.30;85.50;;;20.14;70.14;94697.97;5032924;28;20246;-83
2021/08/15 22:05:08;;;;;;;3.80;3.28;;;20.30;85.80;;;20.08;70.39;94689.16;5033239;28;20673;-82
2021/08/15 22:07:35;;;;;;;5.22;3.58;;;20.20;85.90;;;20.00;70.42;94685.09;5044193;28;20199;-81
2021/08/15 22:10:06;;;;;;;4.47;3.13;;;20.20;86.00;;;19.82;70.24;94656.22;5026161;28;20216;-81
2021/08/15 22:12:33;;;;;;;4.93;3.33;;;20.10;86.00;;;19.98;70.73;94684.56;5026126;28;20204;-81
2021/08/15 22:15:00;;;;;;;5.32;3.20;;;20.10;86.30;;;19.86;70.10;94657.34;5028883;28;20298;-81
2021/08/15 22:17:28;;;;;;;4.57;2.97;;;20.00;86.50;;;19.95;70.30;94673.63;5042457;28;20204;-81
2021/08/15 22:19:55;;;;;;;3.80;3.00;;;20.00;86.60;;;19.95;70.36;94665.66;5041908;28;20253;-81
2021/08/15 22:22:22;;;;;;;5.22;3.47;;;20.00;86.80;;;19.84;70.76;94652.25;5043207;28;20632;-81
2021/08/15 22:24:49;;;;;;;5.05;3.45;;;20.00;86.90;;;19.91;70.72;94670.69;5000079;28;20560;-82
2021/08/15 22:27:16;;;;;;;4.13;3.72;;;20.00;86.90;;;19.79;71.39;94664.72;5032097;28;20197;-81
2021/08/15 22:29:45;;;;;;;4.10;3.53;;;20.00;86.90;;;19.88;70.96;94676.50;5034723;28;20497;-83
2021/08/15 22:32:12;;;;;;;4.10;3.70;;;19.90;87.00;;;19.84;71.34;94672.75;5016597;28;20215;-82
2021/08/15 22:34:40;;;;;;;5.55;3.65;;;19.90;87.10;;;19.82;71.39;94672.19;5017772;28;20266;-82
2021/08/15 22:37:10;;;;;;;4.05;3.65;;;19.90;87.20;;;19.80;71.46;94667.13;5019004;28;20192;-82
2021/08/15 22:39:37;;;;;;;3.92;3.53;;;19.90;87.50;;;19.79;71.65;94678.81;5030870;28;20697;-82
2021/08/15 22:42:04;;;;;;;4.18;3.20;;;19.80;87.40;;;19.73;71.37;94666.53;5000309;28;20192;-83
2021/08/15 22:44:31;;;;;;;4.40;3.28;;;19.80;87.40;;;19.67;71.53;94646.28;5001704;28;20654;-81
2021/08/15 22:46:59;;;;;;;4.45;3.65;;;19.80;87.50;;;19.59;71.78;94642.25;5033116;28;20330;-83
2021/08/15 22:49:26;;;;;;;4.10;3.70;;;19.80;87.50;;;19.72;71.91;94658.81;5032468;28;20250;-81
2021/08/15 22:51:53;;;;;;;4.35;3.67;;;19.80;87.50;;;19.66;71.72;94647.31;5030610;28;20200;-83
2021/08/15 22:54:21;;;;;;;4.72;3.38;;;19.80;87.60;;;19.68;71.60;94656.66;5039619;28;20203;-82
2021/08/15 22:56:48;;;;;;;5.55;3.70;;;19.70;87.60;;;19.49;71.99;94619.03;5034276;28;20271;-83
2021/08/15 22:59:16;;;;;;;4.35;3.38;;;19.70;87.60;;;19.58;71.76;94637.97;5033464;28;20203;-82
2021/08/15 23:01:45;;;;;;;3.67;3.33;;;19.70;87.90;;;19.49;71.72;94620.88;5050609;28;20569;-83
2021/08/15 23:04:15;;;;;;;4.20;3.30;;;19.70;87.80;;;19.60;72.07;94635.84;5015367;28;20199;-82
2021/08/15 23:06:42;;;;;;;3.60;3.30;;;19.60;87.80;;;19.56;71.94;94626.78;5017066;28;20214;-82
2021/08/15 23:09:09;;;;;;;6.53;3.38;;;19.60;87.90;;;19.55;72.37;94632.34;5032542;28;20200;-88
2021/08/15 23:11:37;;;;;;;4.03;3.20;;;19.60;88.00;;;19.39;71.87;94608.28;5033271;28;20308;-89
2021/08/15 23:14:05;;;;;;;5.95;3.30;;;19.60;88.00;;;19.50;71.81;94627.78;5016643;28;20227;-89
2021/08/15 23:16:33;;;;;;;3.63;2.85;;;19.60;88.00;;;19.40;72.02;94609.91;5034470;28;20223;-89
2021/08/15 23:19:00;;;;;;;4.13;2.90;;;19.60;88.00;;;19.41;71.80;94621.34;5020355;28;20210;-89
2021/08/15 23:21:28;;;;;;;4.03;2.88;;;19.50;87.80;;;19.19;72.04;94593.00;5036455;28;20254;-89
2021/08/15 23:23:56;;;;;;;4.00;3.15;;;19.40;87.80;;;19.32;72.14;94605.88;5010332;28;20210;-89
2021/08/15 23:26:24;;;;;;;4.00;3.00;;;19.40;87.90;;;19.09;72.12;94584.94;5033476;28;20290;-89
2021/08/15 23:28:52;;;;;;;3.63;2.88;;;19.40;88.10;;;19.15;72.11;94589.22;5033091;28;20196;-89
2021/08/15 23:31:19;;;;;;;5.88;3.80;;;19.30;88.00;;;19.20;72.30;94616.66;5032977;28;20208;-89
2021/08/15 23:33:46;;;;;;;4.90;3.15;;;19.30;88.10;;;19.11;72.24;94596.91;5031153;28;20207;-88
2021/08/15 23:36:14;;;;;;;4.85;3.17;;;19.30;88.20;;;19.13;72.63;94602.00;5032421;28;20673;-89
2021/08/15 23:38:41;;;;;;;3.80;3.00;;;19.20;88.30;;;19.09;72.69;94588.41;5016393;28;20211;-88
2021/08/15 23:41:08;;;;;;;3.40;3.10;;;19.20;88.30;;;19.10;72.65;94589.97;5016720;28;20215;-89
2021/08/15 23:43:35;;;;;;;4.97;3.10;;;19.20;88.60;;;18.97;72.58;94556.66;5027486;28;20203;-89
2021/08/15 23:46:03;;;;;;;5.05;3.38;;;19.20;88.90;;;19.11;72.80;94577.50;5032125;28;20221;-88
2021/08/15 23:48:30;;;;;;;4.63;3.42;;;19.20;88.90;;;19.00;73.03;94565.97;5034456;28;20216;-88
2021/08/15 23:50:57;;;;;;;4.82;3.47;;;19.20;89.10;;;19.08;73.17;94570.84;5036099;28;20298;-88
2021/08/15 23:53:25;;;;;;;3.72;3.30;;;19.20;89.00;;;19.08;72.78;94578.00;5015833;28;20234;-88
2021/08/15 23:55:52;;;;;;;3.20;2.90;;;19.10;88.90;;;19.02;72.89;94562.03;5032465;28;20219;-88
2021/08/15 23:58:19;;;;;;;3.70;3.05;;;19.10;88.80;;;19.02;72.56;94563.88;5016316;28;20238;-88
